sensor_id;sensor_type;location;lat;lon;timestamp;P1;durP1;ratioP1;P2;durP2;ratioP2
71038;SDS011;58692;43.212;27.908;2022-11-20T00:01:34;15.43;;;5.27;;
71038;SDS011;58692;43.212;27.908;2022-11-20T00:04:00;20.07;;;5.90;;
71038;SDS011;58692;43.212;27.908;2022-11-20T00:06:26;13.95;;;5.38;;
71038;SDS011;58692;43.212;27.908;2022-11-20T00:08:54;14.75;;;5.00;;
71038;SDS011;58692;43.212;27.908;2022-11-20T00:11:22;16.00;;;5.45;;
71038;SDS011;58692;43.212;27.908;2022-11-20T00:13:50;18.95;;;5.35;;
71038;SDS011;58692;43.212;27.908;2022-11-20T00:16:18;13.83;;;5.03;;
71038;SDS011;58692;43.212;27.908;2022-11-20T00:18:46;15.65;;;5.82;;
71038;SDS011;58692;43.212;27.908;2022-11-20T00:21:13;12.70;;;5.53;;
71038;SDS011;58692;43.212;27.908;2022-11-20T00:23:42;21.02;;;5.35;;
71038;SDS011;58692;43.212;27.908;2022-11-20T00:26:09;15.37;;;5.67;;
71038;SDS011;58692;43.212;27.908;2022-11-20T00:28:37;15.40;;;5.50;;
71038;SDS011;58692;43.212;27.908;2022-11-20T00:31:04;18.35;;;5.72;;
71038;SDS011;58692;43.212;27.908;2022-11-20T00:33:31;16.65;;;4.57;;
71038;SDS011;58692;43.212;27.908;2022-11-20T00:36:00;20.33;;;5.80;;
71038;SDS011;58692;43.212;27.908;2022-11-20T00:38:27;19.35;;;5.50;;
71038;SDS011;58692;43.212;27.908;2022-11-20T00:40:56;15.40;;;5.20;;
71038;SDS011;58692;43.212;27.908;2022-11-20T00:43:23;17.33;;;5.20;;
71038;SDS011;58692;43.212;27.908;2022-11-20T00:45:49;17.35;;;5.70;;
71038;SDS011;58692;43.212;27.908;2022-11-20T00:48:14;13.87;;;5.50;;
71038;SDS011;58692;43.212;27.908;2022-11-20T00:50:40;17.33;;;5.73;;
71038;SDS011;58692;43.212;27.908;2022-11-20T00:53:06;16.03;;;6.03;;
71038;SDS011;58692;43.212;27.908;2022-11-20T00:55:32;16.33;;;5.40;;
71038;SDS011;58692;43.212;27.908;2022-11-20T00:57:57;16.23;;;5.50;;
71038;SDS011;58692;43.212;27.908;2022-11-20T01:00:23;14.70;;;5.40;;
71038;SDS011;58692;43.212;27.908;2022-11-20T01:02:48;15.55;;;5.32;;
71038;SDS011;58692;43.212;27.908;2022-11-20T01:05:14;16.03;;;5.90;;
71038;SDS011;58692;43.212;27.908;2022-11-20T01:07:39;16.23;;;5.03;;
71038;SDS011;58692;43.212;27.908;2022-11-20T01:10:05;13.90;;;5.43;;
71038;SDS011;58692;43.212;27.908;2022-11-20T01:12:31;14.97;;;4.93;;
71038;SDS011;58692;43.212;27.908;2022-11-20T01:14:56;14.25;;;4.97;;
71038;SDS011;58692;43.212;27.908;2022-11-20T01:17:22;14.43;;;4.87;;
71038;SDS011;58692;43.212;27.908;2022-11-20T01:19:49;12.97;;;4.80;;
71038;SDS011;58692;43.212;27.908;2022-11-20T01:22:15;13.57;;;4.85;;
71038;SDS011;58692;43.212;27.908;2022-11-20T01:24:41;11.80;;;5.27;;
71038;SDS011;58692;43.212;27.908;2022-11-20T01:27:06;14.97;;;5.10;;
71038;SDS011;58692;43.212;27.908;2022-11-20T01:29:32;14.23;;;5.07;;
71038;SDS011;58692;43.212;27.908;2022-11-20T01:31:57;16.10;;;5.00;;
71038;SDS011;58692;43.212;27.908;2022-11-20T01:34:23;13.52;;;5.38;;
71038;SDS011;58692;43.212;27.908;2022-11-20T01:36:49;15.23;;;5.40;;
71038;SDS011;58692;43.212;27.908;2022-11-20T01:39:17;14.43;;;4.30;;
71038;SDS011;58692;43.212;27.908;2022-11-20T01:41:44;13.20;;;4.55;;
71038;SDS011;58692;43.212;27.908;2022-11-20T01:47:12;12.57;;;5.17;;
71038;SDS011;58692;43.212;27.908;2022-11-20T01:49:43;17.30;;;4.43;;
71038;SDS011;58692;43.212;27.908;2022-11-20T01:54:44;14.60;;;4.72;;
71038;SDS011;58692;43.212;27.908;2022-11-20T01:57:16;15.45;;;4.85;;
71038;SDS011;58692;43.212;27.908;2022-11-20T01:59:45;12.70;;;4.90;;
71038;SDS011;58692;43.212;27.908;2022-11-20T02:02:17;11.57;;;4.68;;
71038;SDS011;58692;43.212;27.908;2022-11-20T02:04:43;15.67;;;4.90;;
71038;SDS011;58692;43.212;27.908;2022-11-20T02:07:09;12.13;;;4.90;;
71038;SDS011;58692;43.212;27.908;2022-11-20T02:09:35;16.08;;;5.22;;
71038;SDS011;58692;43.212;27.908;2022-11-20T02:12:01;11.67;;;4.60;;
71038;SDS011;58692;43.212;27.908;2022-11-20T02:14:27;13.90;;;4.95;;
71038;SDS011;58692;43.212;27.908;2022-11-20T02:16:53;14.32;;;4.93;;
71038;SDS011;58692;43.212;27.908;2022-11-20T02:19:27;13.75;;;4.93;;
71038;SDS011;58692;43.212;27.908;2022-11-20T02:24:22;16.10;;;4.45;;
71038;SDS011;58692;43.212;27.908;2022-11-20T02:29:23;17.20;;;5.18;;
71038;SDS011;58692;43.212;27.908;2022-11-20T02:31:51;19.58;;;5.32;;
71038;SDS011;58692;43.212;27.908;2022-11-20T02:34:20;19.30;;;5.03;;
71038;SDS011;58692;43.212;27.908;2022-11-20T02:36:45;12.73;;;4.75;;
71038;SDS011;58692;43.212;27.908;2022-11-20T02:39:13;16.67;;;5.75;;
71038;SDS011;58692;43.212;27.908;2022-11-20T02:41:42;16.27;;;5.27;;
71038;SDS011;58692;43.212;27.908;2022-11-20T02:44:07;16.38;;;5.35;;
71038;SDS011;58692;43.212;27.908;2022-11-20T02:46:33;16.23;;;5.50;;
71038;SDS011;58692;43.212;27.908;2022-11-20T02:49:00;15.63;;;5.20;;
71038;SDS011;58692;43.212;27.908;2022-11-20T02:51:26;16.38;;;5.22;;
71038;SDS011;58692;43.212;27.908;2022-11-20T02:53:52;12.63;;;5.25;;
71038;SDS011;58692;43.212;27.908;2022-11-20T02:56:17;15.47;;;4.80;;
71038;SDS011;58692;43.212;27.908;2022-11-20T02:58:43;17.80;;;5.17;;
71038;SDS011;58692;43.212;27.908;2022-11-20T03:01:08;13.43;;;5.27;;
71038;SDS011;58692;43.212;27.908;2022-11-20T03:03:34;14.53;;;5.23;;
71038;SDS011;58692;43.212;27.908;2022-11-20T03:05:59;17.83;;;5.20;;
71038;SDS011;58692;43.212;27.908;2022-11-20T03:08:25;14.40;;;5.30;;
71038;SDS011;58692;43.212;27.908;2022-11-20T03:10:51;15.05;;;5.50;;
71038;SDS011;58692;43.212;27.908;2022-11-20T03:13:16;14.83;;;5.50;;
71038;SDS011;58692;43.212;27.908;2022-11-20T03:15:42;15.90;;;5.37;;
71038;SDS011;58692;43.212;27.908;2022-11-20T03:18:07;13.55;;;4.50;;
71038;SDS011;58692;43.212;27.908;2022-11-20T03:20:33;12.43;;;4.73;;
71038;SDS011;58692;43.212;27.908;2022-11-20T03:22:59;14.10;;;5.20;;
71038;SDS011;58692;43.212;27.908;2022-11-20T03:25:25;16.10;;;4.68;;
71038;SDS011;58692;43.212;27.908;2022-11-20T03:27:50;12.80;;;4.30;;
71038;SDS011;58692;43.212;27.908;2022-11-20T03:30:16;12.70;;;4.70;;
71038;SDS011;58692;43.212;27.908;2022-11-20T03:32:42;14.73;;;4.80;;
71038;SDS011;58692;43.212;27.908;2022-11-20T03:35:07;14.07;;;4.35;;
71038;SDS011;58692;43.212;27.908;2022-11-20T03:37:33;14.98;;;4.60;;
71038;SDS011;58692;43.212;27.908;2022-11-20T03:39:59;15.83;;;4.77;;
71038;SDS011;58692;43.212;27.908;2022-11-20T03:42:24;18.13;;;4.33;;
71038;SDS011;58692;43.212;27.908;2022-11-20T03:45:05;14.05;;;4.70;;
71038;SDS011;58692;43.212;27.908;2022-11-20T03:47:31;12.00;;;4.70;;
71038;SDS011;58692;43.212;27.908;2022-11-20T03:49:56;15.30;;;4.43;;
71038;SDS011;58692;43.212;27.908;2022-11-20T03:52:22;16.13;;;4.53;;
71038;SDS011;58692;43.212;27.908;2022-11-20T03:54:47;20.23;;;4.40;;
71038;SDS011;58692;43.212;27.908;2022-11-20T03:57:13;18.77;;;4.50;;
71038;SDS011;58692;43.212;27.908;2022-11-20T03:59:38;14.83;;;4.60;;
71038;SDS011;58692;43.212;27.908;2022-11-20T04:02:04;13.48;;;4.30;;
71038;SDS011;58692;43.212;27.908;2022-11-20T04:04:29;13.80;;;4.50;;
71038;SDS011;58692;43.212;27.908;2022-11-20T04:06:55;14.53;;;3.87;;
71038;SDS011;58692;43.212;27.908;2022-11-20T04:09:20;13.07;;;3.88;;
71038;SDS011;58692;43.212;27.908;2022-11-20T04:11:45;12.87;;;4.60;;
71038;SDS011;58692;43.212;27.908;2022-11-20T04:14:14;9.73;;;3.67;;
71038;SDS011;58692;43.212;27.908;2022-11-20T04:16:40;14.57;;;4.38;;
71038;SDS011;58692;43.212;27.908;2022-11-20T04:19:06;13.57;;;3.77;;
71038;SDS011;58692;43.212;27.908;2022-11-20T04:21:36;10.48;;;3.70;;
71038;SDS011;58692;43.212;27.908;2022-11-20T04:24:02;13.05;;;3.72;;
71038;SDS011;58692;43.212;27.908;2022-11-20T04:26:28;11.55;;;3.67;;
71038;SDS011;58692;43.212;27.908;2022-11-20T04:28:55;14.40;;;3.97;;
71038;SDS011;58692;43.212;27.908;2022-11-20T04:31:24;11.67;;;4.13;;
71038;SDS011;58692;43.212;27.908;2022-11-20T04:33:52;13.60;;;4.30;;
71038;SDS011;58692;43.212;27.908;2022-11-20T04:36:18;13.65;;;3.63;;
71038;SDS011;58692;43.212;27.908;2022-11-20T04:38:46;10.88;;;3.42;;
71038;SDS011;58692;43.212;27.908;2022-11-20T04:41:16;17.30;;;4.00;;
71038;SDS011;58692;43.212;27.908;2022-11-20T04:43:45;11.70;;;3.70;;
71038;SDS011;58692;43.212;27.908;2022-11-20T04:46:13;13.77;;;2.90;;
71038;SDS011;58692;43.212;27.908;2022-11-20T04:48:39;10.53;;;3.67;;
71038;SDS011;58692;43.212;27.908;2022-11-20T04:51:04;13.63;;;3.67;;
71038;SDS011;58692;43.212;27.908;2022-11-20T04:53:30;9.70;;;3.00;;
71038;SDS011;58692;43.212;27.908;2022-11-20T04:55:59;11.75;;;3.67;;
71038;SDS011;58692;43.212;27.908;2022-11-20T04:58:26;11.35;;;2.90;;
71038;SDS011;58692;43.212;27.908;2022-11-20T05:00:51;12.17;;;3.50;;
71038;SDS011;58692;43.212;27.908;2022-11-20T05:03:17;12.13;;;3.13;;
71038;SDS011;58692;43.212;27.908;2022-11-20T05:05:42;13.18;;;3.40;;
71038;SDS011;58692;43.212;27.908;2022-11-20T05:08:08;9.83;;;3.10;;
71038;SDS011;58692;43.212;27.908;2022-11-20T05:10:33;11.33;;;3.70;;
71038;SDS011;58692;43.212;27.908;2022-11-20T05:12:59;13.15;;;3.45;;
71038;SDS011;58692;43.212;27.908;2022-11-20T05:15:24;11.40;;;2.60;;
71038;SDS011;58692;43.212;27.908;2022-11-20T05:17:50;13.47;;;3.10;;
71038;SDS011;58692;43.212;27.908;2022-11-20T05:20:17;13.85;;;3.53;;
71038;SDS011;58692;43.212;27.908;2022-11-20T05:22:43;11.10;;;2.90;;
71038;SDS011;58692;43.212;27.908;2022-11-20T05:25:10;12.18;;;2.72;;
71038;SDS011;58692;43.212;27.908;2022-11-20T05:27:36;14.80;;;3.00;;
71038;SDS011;58692;43.212;27.908;2022-11-20T05:30:03;13.85;;;3.25;;
71038;SDS011;58692;43.212;27.908;2022-11-20T05:32:29;17.75;;;3.58;;
71038;SDS011;58692;43.212;27.908;2022-11-20T05:34:55;15.10;;;3.20;;
71038;SDS011;58692;43.212;27.908;2022-11-20T05:37:21;9.30;;;3.03;;
71038;SDS011;58692;43.212;27.908;2022-11-20T05:39:46;12.07;;;3.13;;
71038;SDS011;58692;43.212;27.908;2022-11-20T05:42:12;12.13;;;2.87;;
71038;SDS011;58692;43.212;27.908;2022-11-20T05:44:52;14.40;;;3.33;;
71038;SDS011;58692;43.212;27.908;2022-11-20T05:47:18;11.17;;;3.20;;
71038;SDS011;58692;43.212;27.908;2022-11-20T05:49:43;16.38;;;3.58;;
71038;SDS011;58692;43.212;27.908;2022-11-20T05:52:09;12.33;;;3.20;;
71038;SDS011;58692;43.212;27.908;2022-11-20T05:54:34;17.67;;;4.20;;
71038;SDS011;58692;43.212;27.908;2022-11-20T05:57:00;13.55;;;3.20;;
71038;SDS011;58692;43.212;27.908;2022-11-20T05:59:25;10.40;;;3.40;;
71038;SDS011;58692;43.212;27.908;2022-11-20T06:01:51;12.30;;;2.80;;
71038;SDS011;58692;43.212;27.908;2022-11-20T06:04:16;12.30;;;3.00;;
71038;SDS011;58692;43.212;27.908;2022-11-20T06:06:42;12.00;;;3.70;;
71038;SDS011;58692;43.212;27.908;2022-11-20T06:09:07;14.97;;;3.47;;
71038;SDS011;58692;43.212;27.908;2022-11-20T06:11:33;11.60;;;3.17;;
71038;SDS011;58692;43.212;27.908;2022-11-20T06:13:58;15.83;;;3.30;;
71038;SDS011;58692;43.212;27.908;2022-11-20T06:16:24;11.23;;;3.27;;
71038;SDS011;58692;43.212;27.908;2022-11-20T06:18:49;16.20;;;3.40;;
71038;SDS011;58692;43.212;27.908;2022-11-20T06:21:16;12.43;;;3.30;;
71038;SDS011;58692;43.212;27.908;2022-11-20T06:23:43;18.38;;;3.42;;
71038;SDS011;58692;43.212;27.908;2022-11-20T06:26:10;13.20;;;3.20;;
71038;SDS011;58692;43.212;27.908;2022-11-20T06:28:38;11.73;;;3.67;;
71038;SDS011;58692;43.212;27.908;2022-11-20T06:31:03;13.98;;;3.47;;
71038;SDS011;58692;43.212;27.908;2022-11-20T06:33:30;15.73;;;3.33;;
71038;SDS011;58692;43.212;27.908;2022-11-20T06:35:57;12.90;;;2.70;;
71038;SDS011;58692;43.212;27.908;2022-11-20T06:38:24;14.80;;;3.28;;
71038;SDS011;58692;43.212;27.908;2022-11-20T06:40:50;13.00;;;3.10;;
71038;SDS011;58692;43.212;27.908;2022-11-20T06:43:16;16.00;;;3.43;;
71038;SDS011;58692;43.212;27.908;2022-11-20T06:45:41;12.68;;;3.35;;
71038;SDS011;58692;43.212;27.908;2022-11-20T06:48:07;18.60;;;3.53;;
71038;SDS011;58692;43.212;27.908;2022-11-20T06:50:34;12.13;;;3.20;;
71038;SDS011;58692;43.212;27.908;2022-11-20T06:53:01;16.92;;;3.60;;
71038;SDS011;58692;43.212;27.908;2022-11-20T06:55:28;13.30;;;3.13;;
71038;SDS011;58692;43.212;27.908;2022-11-20T06:57:53;13.93;;;3.43;;
71038;SDS011;58692;43.212;27.908;2022-11-20T07:00:19;12.65;;;3.40;;
71038;SDS011;58692;43.212;27.908;2022-11-20T07:02:44;9.87;;;2.77;;
71038;SDS011;58692;43.212;27.908;2022-11-20T07:05:10;14.60;;;3.47;;
71038;SDS011;58692;43.212;27.908;2022-11-20T07:07:36;13.55;;;3.30;;
71038;SDS011;58692;43.212;27.908;2022-11-20T07:10:01;13.60;;;3.60;;
71038;SDS011;58692;43.212;27.908;2022-11-20T07:12:27;11.45;;;3.60;;
71038;SDS011;58692;43.212;27.908;2022-11-20T07:14:53;18.97;;;4.43;;
71038;SDS011;58692;43.212;27.908;2022-11-20T07:17:18;13.10;;;3.22;;
71038;SDS011;58692;43.212;27.908;2022-11-20T07:19:43;15.73;;;3.47;;
71038;SDS011;58692;43.212;27.908;2022-11-20T07:22:09;14.33;;;3.93;;
71038;SDS011;58692;43.212;27.908;2022-11-20T07:24:34;13.60;;;3.80;;
71038;SDS011;58692;43.212;27.908;2022-11-20T07:27:00;16.37;;;3.40;;
71038;SDS011;58692;43.212;27.908;2022-11-20T07:29:26;16.30;;;3.57;;
71038;SDS011;58692;43.212;27.908;2022-11-20T07:31:51;17.05;;;3.38;;
71038;SDS011;58692;43.212;27.908;2022-11-20T07:34:16;15.87;;;3.77;;
71038;SDS011;58692;43.212;27.908;2022-11-20T07:36:42;17.77;;;3.40;;
71038;SDS011;58692;43.212;27.908;2022-11-20T07:39:07;15.23;;;3.45;;
71038;SDS011;58692;43.212;27.908;2022-11-20T07:41:33;14.10;;;3.80;;
71038;SDS011;58692;43.212;27.908;2022-11-20T07:43:58;16.00;;;3.10;;
71038;SDS011;58692;43.212;27.908;2022-11-20T07:46:24;16.40;;;3.45;;
71038;SDS011;58692;43.212;27.908;2022-11-20T07:48:49;12.10;;;2.90;;
71038;SDS011;58692;43.212;27.908;2022-11-20T07:51:15;15.87;;;2.90;;
71038;SDS011;58692;43.212;27.908;2022-11-20T07:53:41;13.18;;;3.70;;
71038;SDS011;58692;43.212;27.908;2022-11-20T07:56:06;13.00;;;3.63;;
71038;SDS011;58692;43.212;27.908;2022-11-20T07:58:32;16.58;;;2.88;;
71038;SDS011;58692;43.212;27.908;2022-11-20T08:01:03;11.43;;;3.05;;
71038;SDS011;58692;43.212;27.908;2022-11-20T08:03:29;14.83;;;3.43;;
71038;SDS011;58692;43.212;27.908;2022-11-20T08:05:58;16.27;;;3.10;;
71038;SDS011;58692;43.212;27.908;2022-11-20T08:08:24;11.27;;;3.07;;
71038;SDS011;58692;43.212;27.908;2022-11-20T08:10:49;13.10;;;3.20;;
71038;SDS011;58692;43.212;27.908;2022-11-20T08:13:15;15.93;;;3.30;;
71038;SDS011;58692;43.212;27.908;2022-11-20T08:15:56;17.13;;;3.75;;
71038;SDS011;58692;43.212;27.908;2022-11-20T08:18:21;17.63;;;4.17;;
71038;SDS011;58692;43.212;27.908;2022-11-20T08:20:47;16.20;;;3.70;;
71038;SDS011;58692;43.212;27.908;2022-11-20T08:23:12;13.63;;;3.50;;
71038;SDS011;58692;43.212;27.908;2022-11-20T08:25:38;12.40;;;3.45;;
71038;SDS011;58692;43.212;27.908;2022-11-20T08:28:05;15.90;;;3.60;;
71038;SDS011;58692;43.212;27.908;2022-11-20T08:30:33;15.27;;;3.10;;
71038;SDS011;58692;43.212;27.908;2022-11-20T08:33:00;16.47;;;4.00;;
71038;SDS011;58692;43.212;27.908;2022-11-20T08:35:27;15.82;;;3.60;;
71038;SDS011;58692;43.212;27.908;2022-11-20T08:37:53;14.57;;;3.42;;
71038;SDS011;58692;43.212;27.908;2022-11-20T08:40:18;16.43;;;3.80;;
71038;SDS011;58692;43.212;27.908;2022-11-20T08:42:45;14.80;;;3.53;;
71038;SDS011;58692;43.212;27.908;2022-11-20T08:45:12;15.23;;;3.40;;
71038;SDS011;58692;43.212;27.908;2022-11-20T08:47:38;15.53;;;3.27;;
71038;SDS011;58692;43.212;27.908;2022-11-20T08:50:03;12.27;;;3.45;;
71038;SDS011;58692;43.212;27.908;2022-11-20T08:52:29;15.30;;;3.60;;
71038;SDS011;58692;43.212;27.908;2022-11-20T08:54:55;17.40;;;3.67;;
71038;SDS011;58692;43.212;27.908;2022-11-20T08:57:20;16.00;;;3.40;;
71038;SDS011;58692;43.212;27.908;2022-11-20T08:59:46;14.13;;;3.67;;
71038;SDS011;58692;43.212;27.908;2022-11-20T09:02:11;15.20;;;3.92;;
71038;SDS011;58692;43.212;27.908;2022-11-20T09:04:37;16.37;;;3.60;;
71038;SDS011;58692;43.212;27.908;2022-11-20T09:07:02;19.57;;;3.67;;
71038;SDS011;58692;43.212;27.908;2022-11-20T09:09:28;15.82;;;3.70;;
71038;SDS011;58692;43.212;27.908;2022-11-20T09:11:53;16.60;;;3.87;;
71038;SDS011;58692;43.212;27.908;2022-11-20T09:14:19;15.93;;;3.47;;
71038;SDS011;58692;43.212;27.908;2022-11-20T09:16:46;14.45;;;3.50;;
71038;SDS011;58692;43.212;27.908;2022-11-20T09:19:11;15.00;;;3.23;;
71038;SDS011;58692;43.212;27.908;2022-11-20T09:21:37;14.67;;;3.53;;
71038;SDS011;58692;43.212;27.908;2022-11-20T09:24:02;14.98;;;3.33;;
71038;SDS011;58692;43.212;27.908;2022-11-20T09:26:29;14.77;;;3.20;;
71038;SDS011;58692;43.212;27.908;2022-11-20T09:28:55;11.20;;;3.10;;
71038;SDS011;58692;43.212;27.908;2022-11-20T09:31:22;18.60;;;3.97;;
71038;SDS011;58692;43.212;27.908;2022-11-20T09:33:49;13.52;;;3.20;;
71038;SDS011;58692;43.212;27.908;2022-11-20T09:36:15;16.70;;;4.10;;
71038;SDS011;58692;43.212;27.908;2022-11-20T09:38:41;13.40;;;3.58;;
71038;SDS011;58692;43.212;27.908;2022-11-20T09:41:10;16.70;;;3.80;;
71038;SDS011;58692;43.212;27.908;2022-11-20T09:44:13;12.52;;;3.42;;
71038;SDS011;58692;43.212;27.908;2022-11-20T09:47:06;19.52;;;4.90;;
71038;SDS011;58692;43.212;27.908;2022-11-20T09:54:46;14.70;;;3.60;;
71038;SDS011;58692;43.212;27.908;2022-11-20T09:57:13;15.57;;;3.80;;
71038;SDS011;58692;43.212;27.908;2022-11-20T09:59:45;13.25;;;3.65;;
71038;SDS011;58692;43.212;27.908;2022-11-20T10:02:27;16.48;;;3.13;;
71038;SDS011;58692;43.212;27.908;2022-11-20T10:07:43;18.20;;;3.40;;
71038;SDS011;58692;43.212;27.908;2022-11-20T10:10:15;13.35;;;3.47;;
71038;SDS011;58692;43.212;27.908;2022-11-20T10:31:25;14.80;;;3.95;;
71038;SDS011;58692;43.212;27.908;2022-11-20T10:33:56;12.97;;;3.80;;
71038;SDS011;58692;43.212;27.908;2022-11-20T10:36:27;21.33;;;3.67;;
71038;SDS011;58692;43.212;27.908;2022-11-20T10:38:56;15.32;;;3.45;;
71038;SDS011;58692;43.212;27.908;2022-11-20T10:41:27;14.38;;;4.20;;
71038;SDS011;58692;43.212;27.908;2022-11-20T10:46:23;13.33;;;4.67;;
71038;SDS011;58692;43.212;27.908;2022-11-20T10:48:50;19.40;;;4.80;;
71038;SDS011;58692;43.212;27.908;2022-11-20T10:54:43;13.25;;;4.88;;
71038;SDS011;58692;43.212;27.908;2022-11-20T10:59:55;18.10;;;4.23;;
71038;SDS011;58692;43.212;27.908;2022-11-20T11:02:35;17.92;;;3.42;;
71038;SDS011;58692;43.212;27.908;2022-11-20T11:05:12;14.88;;;4.50;;
71038;SDS011;58692;43.212;27.908;2022-11-20T11:07:42;16.48;;;4.10;;
71038;SDS011;58692;43.212;27.908;2022-11-20T11:12:50;17.43;;;4.40;;
71038;SDS011;58692;43.212;27.908;2022-11-20T11:18:04;15.52;;;4.68;;
71038;SDS011;58692;43.212;27.908;2022-11-20T11:20:33;14.30;;;4.23;;
71038;SDS011;58692;43.212;27.908;2022-11-20T11:22:59;22.90;;;4.88;;
71038;SDS011;58692;43.212;27.908;2022-11-20T11:27:53;16.90;;;4.20;;
71038;SDS011;58692;43.212;27.908;2022-11-20T11:30:21;17.08;;;3.83;;
71038;SDS011;58692;43.212;27.908;2022-11-20T11:32:48;14.15;;;4.25;;
71038;SDS011;58692;43.212;27.908;2022-11-20T11:35:22;15.83;;;4.53;;
71038;SDS011;58692;43.212;27.908;2022-11-20T11:37:51;22.27;;;3.97;;
71038;SDS011;58692;43.212;27.908;2022-11-20T11:40:20;16.10;;;3.85;;
71038;SDS011;58692;43.212;27.908;2022-11-20T11:45:52;18.90;;;4.80;;
71038;SDS011;58692;43.212;27.908;2022-11-20T11:48:19;19.85;;;4.63;;
71038;SDS011;58692;43.212;27.908;2022-11-20T11:50:49;14.57;;;5.00;;
71038;SDS011;58692;43.212;27.908;2022-11-20T11:53:16;17.55;;;5.63;;
71038;SDS011;58692;43.212;27.908;2022-11-20T11:55:54;19.02;;;5.40;;
71038;SDS011;58692;43.212;27.908;2022-11-20T12:01:34;17.00;;;5.40;;
71038;SDS011;58692;43.212;27.908;2022-11-20T12:06:27;15.65;;;4.85;;
71038;SDS011;58692;43.212;27.908;2022-11-20T12:08:58;19.90;;;3.85;;
71038;SDS011;58692;43.212;27.908;2022-11-20T12:11:32;20.67;;;4.85;;
71038;SDS011;58692;43.212;27.908;2022-11-20T12:16:30;18.67;;;4.93;;
71038;SDS011;58692;43.212;27.908;2022-11-20T12:18:59;20.45;;;4.80;;
71038;SDS011;58692;43.212;27.908;2022-11-20T12:37:04;23.35;;;4.15;;
71038;SDS011;58692;43.212;27.908;2022-11-20T12:39:41;17.70;;;3.70;;
71038;SDS011;58692;43.212;27.908;2022-11-20T12:45:13;22.10;;;4.40;;
71038;SDS011;58692;43.212;27.908;2022-11-20T12:47:48;18.17;;;3.80;;
71038;SDS011;58692;43.212;27.908;2022-11-20T12:52:51;19.37;;;3.30;;
71038;SDS011;58692;43.212;27.908;2022-11-20T12:55:28;21.58;;;4.20;;
71038;SDS011;58692;43.212;27.908;2022-11-20T12:57:58;18.75;;;3.83;;
71038;SDS011;58692;43.212;27.908;2022-11-20T13:00:30;21.45;;;4.05;;
71038;SDS011;58692;43.212;27.908;2022-11-20T13:03:12;19.55;;;3.45;;
71038;SDS011;58692;43.212;27.908;2022-11-20T13:08:28;19.17;;;4.20;;
71038;SDS011;58692;43.212;27.908;2022-11-20T13:14:04;20.95;;;3.88;;
71038;SDS011;58692;43.212;27.908;2022-11-20T13:19:14;19.97;;;5.00;;
71038;SDS011;58692;43.212;27.908;2022-11-20T13:21:42;23.15;;;4.38;;
71038;SDS011;58692;43.212;27.908;2022-11-20T13:24:21;23.70;;;4.05;;
71038;SDS011;58692;43.212;27.908;2022-11-20T13:29:34;24.23;;;4.05;;
71038;SDS011;58692;43.212;27.908;2022-11-20T13:34:29;24.58;;;5.88;;
71038;SDS011;58692;43.212;27.908;2022-11-20T13:36:55;20.45;;;4.07;;
71038;SDS011;58692;43.212;27.908;2022-11-20T13:39:24;21.63;;;4.13;;
71038;SDS011;58692;43.212;27.908;2022-11-20T13:41:55;24.02;;;4.68;;
71038;SDS011;58692;43.212;27.908;2022-11-20T13:44:24;23.80;;;5.03;;
71038;SDS011;58692;43.212;27.908;2022-11-20T13:46:50;24.92;;;5.43;;
71038;SDS011;58692;43.212;27.908;2022-11-20T13:49:18;20.70;;;5.05;;
71038;SDS011;58692;43.212;27.908;2022-11-20T13:51:49;25.55;;;4.93;;
71038;SDS011;58692;43.212;27.908;2022-11-20T14:00:07;22.90;;;5.40;;
71038;SDS011;58692;43.212;27.908;2022-11-20T14:02:35;23.85;;;4.90;;
71038;SDS011;58692;43.212;27.908;2022-11-20T14:05:01;24.00;;;4.53;;
71038;SDS011;58692;43.212;27.908;2022-11-20T14:07:31;25.33;;;3.83;;
71038;SDS011;58692;43.212;27.908;2022-11-20T14:10:01;23.02;;;4.97;;
71038;SDS011;58692;43.212;27.908;2022-11-20T14:12:28;23.17;;;4.57;;
71038;SDS011;58692;43.212;27.908;2022-11-20T14:14:55;23.80;;;4.38;;
71038;SDS011;58692;43.212;27.908;2022-11-20T14:17:22;22.50;;;4.90;;
71038;SDS011;58692;43.212;27.908;2022-11-20T14:19:49;27.17;;;5.00;;
71038;SDS011;58692;43.212;27.908;2022-11-20T14:24:48;20.08;;;4.30;;
71038;SDS011;58692;43.212;27.908;2022-11-20T14:27:26;26.20;;;5.88;;
71038;SDS011;58692;43.212;27.908;2022-11-20T14:29:51;20.60;;;4.67;;
71038;SDS011;58692;43.212;27.908;2022-11-20T14:32:18;22.23;;;5.55;;
71038;SDS011;58692;43.212;27.908;2022-11-20T14:34:47;17.83;;;4.38;;
71038;SDS011;58692;43.212;27.908;2022-11-20T14:37:20;19.93;;;4.83;;
71038;SDS011;58692;43.212;27.908;2022-11-20T14:39:52;28.73;;;5.63;;
71038;SDS011;58692;43.212;27.908;2022-11-20T14:42:21;22.30;;;4.80;;
71038;SDS011;58692;43.212;27.908;2022-11-20T14:44:48;26.65;;;4.60;;
71038;SDS011;58692;43.212;27.908;2022-11-20T14:47:17;24.67;;;5.38;;
71038;SDS011;58692;43.212;27.908;2022-11-20T14:49:45;25.70;;;5.00;;
71038;SDS011;58692;43.212;27.908;2022-11-20T14:52:15;19.45;;;4.82;;
71038;SDS011;58692;43.212;27.908;2022-11-20T14:54:45;23.80;;;6.03;;
71038;SDS011;58692;43.212;27.908;2022-11-20T14:57:19;22.50;;;5.90;;
71038;SDS011;58692;43.212;27.908;2022-11-20T14:59:49;24.83;;;5.83;;
71038;SDS011;58692;43.212;27.908;2022-11-20T15:02:14;23.00;;;5.53;;
71038;SDS011;58692;43.212;27.908;2022-11-20T15:04:44;23.23;;;6.30;;
71038;SDS011;58692;43.212;27.908;2022-11-20T15:07:11;25.20;;;5.82;;
71038;SDS011;58692;43.212;27.908;2022-11-20T15:09:47;25.33;;;5.57;;
71038;SDS011;58692;43.212;27.908;2022-11-20T15:12:23;25.67;;;5.25;;
71038;SDS011;58692;43.212;27.908;2022-11-20T15:14:49;28.83;;;5.00;;
71038;SDS011;58692;43.212;27.908;2022-11-20T15:17:14;30.05;;;6.43;;
71038;SDS011;58692;43.212;27.908;2022-11-20T15:19:40;30.77;;;6.10;;
71038;SDS011;58692;43.212;27.908;2022-11-20T15:22:08;24.77;;;5.72;;
71038;SDS011;58692;43.212;27.908;2022-11-20T15:24:38;27.13;;;5.95;;
71038;SDS011;58692;43.212;27.908;2022-11-20T15:27:03;22.43;;;5.67;;
71038;SDS011;58692;43.212;27.908;2022-11-20T15:29:29;24.57;;;6.10;;
71038;SDS011;58692;43.212;27.908;2022-11-20T15:31:54;25.15;;;6.25;;
71038;SDS011;58692;43.212;27.908;2022-11-20T15:34:21;25.33;;;6.63;;
71038;SDS011;58692;43.212;27.908;2022-11-20T15:36:46;24.95;;;5.70;;
71038;SDS011;58692;43.212;27.908;2022-11-20T15:39:11;25.73;;;6.13;;
71038;SDS011;58692;43.212;27.908;2022-11-20T15:41:37;31.13;;;8.23;;
71038;SDS011;58692;43.212;27.908;2022-11-20T15:44:04;23.50;;;6.55;;
71038;SDS011;58692;43.212;27.908;2022-11-20T15:46:31;28.50;;;7.38;;
71038;SDS011;58692;43.212;27.908;2022-11-20T15:49:02;23.50;;;6.65;;
71038;SDS011;58692;43.212;27.908;2022-11-20T15:51:29;25.77;;;6.73;;
71038;SDS011;58692;43.212;27.908;2022-11-20T15:53:57;27.08;;;7.32;;
71038;SDS011;58692;43.212;27.908;2022-11-20T15:56:23;29.30;;;6.60;;
71038;SDS011;58692;43.212;27.908;2022-11-20T15:58:49;30.13;;;6.63;;
71038;SDS011;58692;43.212;27.908;2022-11-20T16:01:16;30.73;;;7.73;;
71038;SDS011;58692;43.212;27.908;2022-11-20T16:03:43;26.55;;;6.68;;
71038;SDS011;58692;43.212;27.908;2022-11-20T16:06:09;27.23;;;6.50;;
71038;SDS011;58692;43.212;27.908;2022-11-20T16:08:34;27.58;;;6.68;;
71038;SDS011;58692;43.212;27.908;2022-11-20T16:11:00;24.13;;;7.63;;